createdAt,value
2022-12-13T00:01:52.075Z,16.77
2022-12-13T00:04:21.552Z,16.95
2022-12-13T00:06:49.526Z,16.25
2022-12-13T00:09:18.553Z,17.05
2022-12-13T00:11:45.955Z,16.63
2022-12-13T00:14:14.438Z,15.05
2022-12-13T00:16:45.632Z,4.75
2022-12-13T00:19:12.921Z,2.30
2022-12-13T00:21:39.803Z,2.78
2022-12-13T00:24:07.978Z,2.55
2022-12-13T00:26:35.192Z,2.20
2022-12-13T00:29:04.528Z,3.05
2022-12-13T00:34:21.350Z,2.55
2022-12-13T00:36:48.915Z,2.00
2022-12-13T00:39:16.721Z,2.38
2022-12-13T00:41:44.911Z,2.50
2022-12-13T00:44:13.133Z,6.15
2022-12-13T00:46:40.925Z,14.50
2022-12-13T00:49:09.949Z,15.65
2022-12-13T00:51:36.976Z,17.27
2022-12-13T00:54:03.913Z,19.38
2022-12-13T00:56:32.113Z,19.20
2022-12-13T00:58:59.721Z,17.17
2022-12-13T01:01:29.132Z,16.48
2022-12-13T01:03:58.097Z,17.23
2022-12-13T01:06:36.815Z,17.45
2022-12-13T01:09:05.532Z,16.42
2022-12-13T01:11:32.841Z,17.30
2022-12-13T01:13:59.689Z,14.43
2022-12-13T01:16:26.656Z,14.18
2022-12-13T01:18:53.533Z,16.15
2022-12-13T01:21:23.624Z,16.30
2022-12-13T01:23:50.453Z,16.45
2022-12-13T01:26:20.280Z,16.60
2022-12-13T01:28:48.347Z,16.63
2022-12-13T01:31:18.173Z,15.88
2022-12-13T01:33:45.484Z,16.63
2022-12-13T01:36:15.619Z,17.08
2022-12-13T01:38:43.387Z,16.75
2022-12-13T01:41:20.859Z,15.25
2022-12-13T01:44:06.060Z,15.18
2022-12-13T01:46:36.136Z,14.38
2022-12-13T01:49:20.168Z,13.57
2022-12-13T01:51:57.920Z,14.90
2022-12-13T01:54:33.897Z,11.15
2022-12-13T01:57:04.807Z,11.60
2022-12-13T01:59:32.600Z,13.48
2022-12-13T02:02:00.909Z,11.48
2022-12-13T02:04:44.156Z,11.98
2022-12-13T02:07:22.708Z,11.30
2022-12-13T02:09:56.428Z,10.68
2022-12-13T02:12:29.458Z,10.05
2022-12-13T02:15:03.210Z,10.43
2022-12-13T02:17:52.742Z,7.53
2022-12-13T02:20:41.077Z,3.97
2022-12-13T02:23:26.622Z,6.45
2022-12-13T02:26:10.347Z,5.10
2022-12-13T02:29:00.401Z,6.65
2022-12-13T02:31:47.207Z,5.70
2022-12-13T02:34:37.892Z,7.30
2022-12-13T02:37:17.352Z,8.38
2022-12-13T02:39:58.975Z,9.07
2022-12-13T02:42:50.776Z,9.40
2022-12-13T02:45:24.849Z,9.88
2022-12-13T02:47:56.610Z,11.65
2022-12-13T02:50:26.299Z,11.07
2022-12-13T02:52:54.540Z,16.88
2022-12-13T02:55:27.834Z,17.20
2022-12-13T02:57:55.373Z,16.92
2022-12-13T03:00:32.142Z,15.38
2022-12-13T03:03:22.182Z,13.77
2022-12-13T03:06:41.504Z,11.85
2022-12-13T03:09:45.131Z,12.00
2022-12-13T03:12:33.503Z,11.43
2022-12-13T03:15:21.205Z,11.68
2022-12-13T03:17:56.335Z,12.10
2022-12-13T03:20:26.023Z,11.30
2022-12-13T03:22:54.160Z,11.70
2022-12-13T03:25:31.306Z,9.10
2022-12-13T03:28:01.123Z,10.48
2022-12-13T03:30:30.060Z,11.63
2022-12-13T03:32:56.857Z,10.57
2022-12-13T03:35:24.004Z,9.70
2022-12-13T03:37:51.606Z,8.68
2022-12-13T03:40:19.829Z,9.18
2022-12-13T03:42:47.309Z,10.43
2022-12-13T03:45:14.524Z,9.18
2022-12-13T03:47:41.425Z,9.23
2022-12-13T03:50:28.345Z,8.43
2022-12-13T03:52:59.934Z,7.40
2022-12-13T03:55:27.180Z,8.53
2022-12-13T03:57:54.174Z,8.25
2022-12-13T04:00:21.260Z,7.93
2022-12-13T04:02:48.484Z,8.55
2022-12-13T04:05:15.914Z,7.95
2022-12-13T04:07:48.157Z,7.50
2022-12-13T04:10:25.526Z,7.30
2022-12-13T04:13:13.078Z,9.02
2022-12-13T04:15:40.073Z,8.20
2022-12-13T04:18:07.578Z,8.00
2022-12-13T04:20:34.678Z,7.03
2022-12-13T04:23:09.943Z,8.15
2022-12-13T04:25:38.142Z,7.95
2022-12-13T04:28:05.338Z,7.82
2022-12-13T04:30:32.259Z,7.80
2022-12-13T04:32:59.405Z,8.15
2022-12-13T04:35:26.449Z,8.60
2022-12-13T04:37:53.458Z,8.27
2022-12-13T04:40:21.868Z,8.63
2022-12-13T04:42:54.097Z,8.13
2022-12-13T04:45:22.755Z,8.50
2022-12-13T04:47:50.117Z,8.85
2022-12-13T04:50:17.653Z,9.02
2022-12-13T04:52:44.952Z,9.57
2022-12-13T04:55:11.974Z,9.45
2022-12-13T04:57:39.837Z,10.02
2022-12-13T05:00:09.791Z,10.05
2022-12-13T05:02:37.123Z,9.18
2022-12-13T05:05:04.125Z,9.35
2022-12-13T05:07:30.910Z,9.75
2022-12-13T05:09:57.717Z,9.60
2022-12-13T05:12:24.796Z,9.65
2022-12-13T05:14:53.105Z,9.85
2022-12-13T05:17:20.504Z,9.88
2022-12-13T05:19:47.690Z,9.73
2022-12-13T05:22:20.770Z,9.30
2022-12-13T05:24:48.423Z,10.15
2022-12-13T05:27:23.767Z,9.20
2022-12-13T05:30:03.051Z,9.07
2022-12-13T05:32:43.692Z,9.05
2022-12-13T05:35:22.196Z,9.80
2022-12-13T05:37:54.385Z,8.68
2022-12-13T05:40:26.543Z,7.22
2022-12-13T05:43:01.431Z,7.80
2022-12-13T05:45:30.418Z,7.63
2022-12-13T05:47:57.259Z,7.97
2022-12-13T05:50:25.584Z,7.80
2022-12-13T05:52:52.584Z,7.32
2022-12-13T05:55:20.224Z,7.95
2022-12-13T05:57:50.052Z,8.48
2022-12-13T06:00:28.825Z,7.88
2022-12-13T06:03:00.649Z,8.25
2022-12-13T06:05:29.246Z,8.48
2022-12-13T06:07:59.167Z,10.35
2022-12-13T06:10:34.367Z,10.02
2022-12-13T06:13:22.135Z,6.70
2022-12-13T06:16:00.980Z,6.78
2022-12-13T06:18:32.982Z,7.05
2022-12-13T06:21:03.380Z,6.95
2022-12-13T06:23:32.033Z,6.68
2022-12-13T06:25:59.261Z,6.93
2022-12-13T06:28:26.233Z,6.80
2022-12-13T06:30:54.701Z,7.55
2022-12-13T06:33:24.649Z,7.53
2022-12-13T06:35:52.782Z,7.60
2022-12-13T06:38:31.061Z,7.65
2022-12-13T06:41:15.755Z,7.90
2022-12-13T06:43:50.698Z,8.15
2022-12-13T06:46:19.406Z,10.30
2022-12-13T06:48:48.814Z,10.65
2022-12-13T06:51:22.992Z,10.18
2022-12-13T06:54:01.006Z,8.60
2022-12-13T06:56:29.798Z,8.95
2022-12-13T06:59:01.172Z,9.57
2022-12-13T07:01:37.832Z,10.57
2022-12-13T07:04:30.545Z,9.45
2022-12-13T07:06:53.908Z,10.65
2022-12-13T07:09:21.002Z,9.15
2022-12-13T07:11:52.008Z,10.35
2022-12-13T07:14:20.327Z,8.35
2022-12-13T07:16:47.416Z,10.38
2022-12-13T07:19:23.615Z,12.25
2022-12-13T07:24:35.062Z,24.83
2022-12-13T07:27:04.238Z,11.75
2022-12-13T07:29:31.246Z,9.80
2022-12-13T07:32:01.348Z,12.40
2022-12-13T07:34:29.368Z,14.98
2022-12-13T07:36:57.307Z,12.25
2022-12-13T07:39:26.277Z,13.15
2022-12-13T07:41:56.999Z,19.60
2022-12-13T07:44:24.999Z,22.58
2022-12-13T07:46:52.181Z,15.10
2022-12-13T07:49:19.659Z,10.15
2022-12-13T07:51:46.535Z,9.93
2022-12-13T07:54:14.943Z,10.93
2022-12-13T07:56:50.795Z,10.15
2022-12-13T07:59:28.816Z,11.23
2022-12-13T08:04:38.497Z,11.77
2022-12-13T08:07:17.320Z,11.05
2022-12-13T08:09:48.076Z,14.02
2022-12-13T08:12:22.561Z,22.92
2022-12-13T08:14:53.163Z,20.63
2022-12-13T08:17:21.013Z,20.98
2022-12-13T08:19:50.895Z,14.25
2022-12-13T08:27:45.402Z,13.07
2022-12-13T08:32:53.960Z,12.70
2022-12-13T08:35:20.938Z,13.07
2022-12-13T08:40:29.188Z,11.13
2022-12-13T08:45:41.478Z,14.32
2022-12-13T08:48:15.856Z,16.83
2022-12-13T08:53:41.952Z,9.45
2022-12-13T08:56:11.898Z,8.82
2022-12-13T09:01:21.037Z,9.43
2022-12-13T09:03:48.074Z,8.32
2022-12-13T09:06:17.028Z,8.55
2022-12-13T09:08:44.948Z,8.55
2022-12-13T09:11:32.913Z,7.40
2022-12-13T09:14:03.863Z,8.45
2022-12-13T09:16:30.965Z,9.07
2022-12-13T09:21:53.275Z,9.00
2022-12-13T09:24:36.748Z,9.55
2022-12-13T09:27:09.843Z,10.77
2022-12-13T09:29:37.818Z,9.82
2022-12-13T09:32:05.204Z,10.00
2022-12-13T09:34:33.340Z,9.57
2022-12-13T09:37:01.643Z,8.95
2022-12-13T09:39:29.485Z,9.48
2022-12-13T09:42:01.111Z,9.57
2022-12-13T09:44:43.926Z,9.18
2022-12-13T09:47:23.212Z,9.02
2022-12-13T09:49:54.938Z,8.15
2022-12-13T09:52:40.335Z,7.72
2022-12-13T09:55:22.420Z,8.98
2022-12-13T09:57:50.313Z,8.48
2022-12-13T10:00:22.443Z,9.30
2022-12-13T10:02:59.930Z,10.70
2022-12-13T10:05:39.509Z,10.02
2022-12-13T10:08:06.517Z,9.15
2022-12-13T10:10:33.312Z,8.93
2022-12-13T10:13:09.502Z,9.45
2022-12-13T10:15:40.733Z,9.13
2022-12-13T10:18:10.715Z,10.75
2022-12-13T10:20:38.040Z,12.75
2022-12-13T10:26:03.433Z,12.75
2022-12-13T10:28:33.475Z,12.15
2022-12-13T10:31:01.826Z,12.05
2022-12-13T10:33:35.271Z,12.60
2022-12-13T10:36:08.395Z,12.20
2022-12-13T10:38:41.745Z,12.13
2022-12-13T10:41:32.710Z,11.60
2022-12-13T10:44:11.720Z,12.05
2022-12-13T10:46:47.983Z,12.35
2022-12-13T10:49:18.504Z,12.20
2022-12-13T10:51:54.018Z,11.65
2022-12-13T10:54:38.412Z,10.98
2022-12-13T10:57:15.824Z,12.55
2022-12-13T10:59:44.634Z,11.95
2022-12-13T11:02:30.009Z,11.43
2022-12-13T11:04:59.721Z,11.15
2022-12-13T11:07:34.173Z,12.35
2022-12-13T11:10:27.372Z,13.68
2022-12-13T11:13:05.239Z,10.95
2022-12-13T11:15:41.679Z,11.05
2022-12-13T11:18:20.599Z,10.82
2022-12-13T11:20:59.394Z,10.52
2022-12-13T11:23:35.681Z,10.23
2022-12-13T11:26:09.502Z,11.25
2022-12-13T11:29:00.492Z,9.88
2022-12-13T11:31:48.375Z,9.20
2022-12-13T11:34:37.306Z,9.38
2022-12-13T11:37:27.543Z,8.73
2022-12-13T11:40:14.975Z,10.25
2022-12-13T11:42:52.477Z,10.85
2022-12-13T11:45:54.487Z,9.55
2022-12-13T11:48:28.854Z,9.80
2022-12-13T11:50:56.751Z,8.73
2022-12-13T11:53:43.882Z,9.77
2022-12-13T11:56:10.828Z,8.82
2022-12-13T11:59:29.221Z,8.88
2022-12-13T12:02:05.181Z,9.07
2022-12-13T12:04:43.113Z,6.25
2022-12-13T12:07:36.971Z,10.63
2022-12-13T12:10:18.722Z,5.28
2022-12-13T12:12:58.586Z,5.28
2022-12-13T12:15:29.944Z,6.00
2022-12-13T12:17:57.387Z,6.18
2022-12-13T12:20:40.562Z,6.88
2022-12-13T12:23:30.257Z,6.28
2022-12-13T12:26:13.309Z,7.55
2022-12-13T12:29:12.400Z,7.30
2022-12-13T12:31:51.134Z,6.82
2022-12-13T12:34:33.194Z,7.45
2022-12-13T12:37:12.344Z,7.50
2022-12-13T12:40:13.056Z,7.97
2022-12-13T12:43:14.301Z,9.98
2022-12-13T12:46:00.188Z,10.55
2022-12-13T12:48:55.071Z,9.38
2022-12-13T12:51:50.167Z,11.38
2022-12-13T12:54:48.253Z,9.13
2022-12-13T12:57:30.587Z,9.43
2022-12-13T13:00:10.809Z,9.23
2022-12-13T13:02:45.467Z,9.38
2022-12-13T13:05:31.565Z,8.73
2022-12-13T13:08:06.976Z,16.48
2022-12-13T13:10:34.694Z,17.42
2022-12-13T13:13:12.011Z,13.68
2022-12-13T13:15:40.625Z,13.13
2022-12-13T13:18:55.265Z,12.10
2022-12-13T13:21:25.720Z,11.70
2022-12-13T13:24:04.094Z,13.43
2022-12-13T13:26:36.386Z,14.50
2022-12-13T13:29:27.121Z,11.63
2022-12-13T13:32:02.322Z,11.18
2022-12-13T13:34:35.696Z,10.80
2022-12-13T13:37:05.195Z,10.85
2022-12-13T13:39:32.446Z,10.82
2022-12-13T13:42:15.714Z,11.95
2022-12-13T13:44:45.681Z,15.00
2022-12-13T13:47:20.555Z,13.70
2022-12-13T13:50:01.651Z,15.57
2022-12-13T13:52:56.352Z,13.37
2022-12-13T13:55:29.575Z,13.35
2022-12-13T13:58:09.447Z,13.63
2022-12-13T14:01:19.414Z,12.95
2022-12-13T14:04:03.260Z,12.60
2022-12-13T14:06:38.940Z,13.18
2022-12-13T14:09:38.282Z,11.32
2022-12-13T14:12:24.434Z,11.80
2022-12-13T14:15:18.990Z,13.55
2022-12-13T14:18:32.887Z,17.98
2022-12-13T14:21:03.336Z,12.77
2022-12-13T14:24:07.770Z,12.18
2022-12-13T14:26:46.276Z,13.05
2022-12-13T14:29:29.964Z,12.48
2022-12-13T14:32:04.155Z,12.73
2022-12-13T14:34:33.854Z,13.43
2022-12-13T14:37:28.079Z,12.38
2022-12-13T14:39:55.784Z,11.98
2022-12-13T14:42:34.080Z,12.18
2022-12-13T14:45:25.783Z,12.40
2022-12-13T14:47:54.957Z,11.95
2022-12-13T14:50:25.941Z,13.18
2022-12-13T14:53:19.914Z,12.85
2022-12-13T15:02:05.265Z,13.80
2022-12-13T15:04:37.099Z,12.98
2022-12-13T15:07:22.292Z,13.68
2022-12-13T15:09:56.789Z,12.85
2022-12-13T15:12:25.867Z,13.13
2022-12-13T15:15:05.381Z,12.88
2022-12-13T15:17:36.469Z,12.98
2022-12-13T15:20:22.716Z,13.15
2022-12-13T15:23:12.361Z,11.98
2022-12-13T15:25:43.192Z,12.40
2022-12-13T15:28:21.174Z,12.77
2022-12-13T15:30:53.052Z,12.85
2022-12-13T15:33:27.609Z,13.95
2022-12-13T15:36:07.949Z,13.27
2022-12-13T15:38:37.949Z,14.18
2022-12-13T15:41:05.530Z,15.18
2022-12-13T15:46:39.211Z,14.55
2022-12-13T15:52:07.850Z,14.52
2022-12-13T15:54:35.537Z,14.15
2022-12-13T15:57:21.847Z,13.38
2022-12-13T15:59:49.076Z,13.65
2022-12-13T16:02:23.325Z,15.02
2022-12-13T16:04:51.348Z,13.43
2022-12-13T16:07:40.396Z,12.02
2022-12-13T16:10:08.701Z,12.20
2022-12-13T16:12:47.588Z,13.10
2022-12-13T16:15:29.421Z,14.02
2022-12-13T16:18:20.503Z,13.10
2022-12-13T16:20:54.725Z,17.13
2022-12-13T16:23:27.757Z,21.17
2022-12-13T16:25:55.180Z,18.08
2022-12-13T16:28:26.037Z,16.17
2022-12-13T16:30:53.343Z,17.23
2022-12-13T16:33:26.973Z,18.48
2022-12-13T16:35:55.867Z,21.05
2022-12-13T16:38:26.585Z,22.10
2022-12-13T16:41:08.712Z,18.55
2022-12-13T16:47:17.880Z,16.40
2022-12-13T16:52:27.643Z,15.23
2022-12-13T16:55:01.622Z,16.73
2022-12-13T16:58:01.277Z,23.42
2022-12-13T17:00:30.126Z,23.67
2022-12-13T17:02:59.007Z,19.83
2022-12-13T17:05:27.682Z,18.95
2022-12-13T17:07:55.433Z,20.40
2022-12-13T17:10:23.424Z,19.73
2022-12-13T17:12:51.631Z,20.40
2022-12-13T17:15:30.359Z,19.63
2022-12-13T17:20:46.468Z,24.73
2022-12-13T17:29:09.965Z,23.38
2022-12-13T17:34:36.434Z,23.50
2022-12-13T17:37:10.008Z,22.95
2022-12-13T17:45:29.227Z,22.02
2022-12-13T18:21:46.552Z,21.52
2022-12-13T18:24:14.249Z,41.40
2022-12-13T19:35:52.561Z,21.45
2022-12-13T19:46:44.243Z,21.80
2022-12-13T19:54:54.334Z,25.50
2022-12-13T20:00:14.082Z,25.45
2022-12-13T20:03:08.708Z,26.08
2022-12-13T20:05:46.391Z,26.98
2022-12-13T20:22:22.831Z,25.98
2022-12-13T20:30:26.881Z,35.53
2022-12-13T20:44:52.583Z,30.02
2022-12-13T20:50:21.103Z,29.00
2022-12-13T20:53:20.784Z,27.65
2022-12-13T20:55:49.610Z,28.98
2022-12-13T20:58:19.634Z,30.55
2022-12-13T21:03:45.153Z,31.10
2022-12-13T21:09:10.397Z,29.27
2022-12-13T21:11:45.294Z,27.10
2022-12-13T21:14:33.910Z,28.27
2022-12-13T21:17:04.398Z,28.58
2022-12-13T21:19:39.767Z,28.92
2022-12-13T21:22:08.844Z,28.70
2022-12-13T21:27:18.695Z,26.25
2022-12-13T21:32:27.216Z,24.08
2022-12-13T21:34:54.798Z,25.02
2022-12-13T21:37:36.444Z,22.48
2022-12-13T21:40:06.617Z,20.67
2022-12-13T21:42:36.094Z,23.65
2022-12-13T21:45:02.997Z,25.58
2022-12-13T21:47:30.614Z,24.45
2022-12-13T21:49:58.022Z,22.30
2022-12-13T21:52:26.031Z,18.48
2022-12-13T21:55:15.150Z,16.77
2022-12-13T21:58:01.840Z,17.42
2022-12-13T22:00:34.793Z,18.10
2022-12-13T22:03:01.789Z,22.85
2022-12-13T22:05:30.327Z,24.58
2022-12-13T22:08:00.074Z,23.75
2022-12-13T22:10:29.175Z,23.48
2022-12-13T22:12:57.521Z,24.35
2022-12-13T22:15:25.191Z,24.60
2022-12-13T22:17:52.541Z,23.00
2022-12-13T22:20:24.122Z,23.65
2022-12-13T22:22:55.146Z,23.38
2022-12-13T22:28:05.214Z,24.05
2022-12-13T22:33:12.913Z,23.50
2022-12-13T22:41:25.862Z,23.30
2022-12-13T22:43:54.895Z,22.80
2022-12-13T22:46:25.339Z,26.77
2022-12-13T22:48:56.891Z,24.67
2022-12-13T22:51:25.279Z,24.30
2022-12-13T22:53:52.307Z,23.80
2022-12-13T22:56:22.370Z,21.67
2022-12-13T22:59:15.679Z,20.23
2022-12-13T23:01:42.819Z,19.98
2022-12-13T23:04:14.676Z,21.02
2022-12-13T23:06:45.581Z,19.08
2022-12-13T23:09:16.622Z,17.38
2022-12-13T23:12:01.979Z,16.92
2022-12-13T23:14:35.485Z,17.05
2022-12-13T23:17:08.169Z,17.30
2022-12-13T23:19:49.969Z,15.90
2022-12-13T23:22:24.052Z,15.45
2022-12-13T23:27:21.615Z,15.73
2022-12-13T23:29:52.933Z,16.80
2022-12-13T23:32:20.483Z,19.75
2022-12-13T23:34:47.309Z,26.10
2022-12-13T23:37:14.199Z,29.13
2022-12-13T23:39:41.656Z,28.08
2022-12-13T23:42:08.692Z,25.00
2022-12-13T23:44:35.897Z,23.95
2022-12-13T23:49:45.398Z,22.08
2022-12-13T23:52:15.801Z,23.98
2022-12-13T23:54:45.065Z,22.73
2022-12-13T23:59:58.239Z,24.90
